Time;durP1;ratioP1;P1;durP2;ratioP2;P2;SDS_P1;SDS_P2;PMS_P1;PMS_P2;Temp;Humidity;BMP_temperature;BMP_pressure;BME280_temperature;BME280_humidity;BME280_pressure;Samples;Min_cycle;Max_cycle;Signal;HPM_P1;HPM_P2
2022/04/25 00:01:58;;;;;;;6.97;4.28;;;;;;;21.32;38.56;101108.78;5095073;27;20039;-79
2022/04/25 00:04:23;;;;;;;6.18;4.28;;;;;;;21.26;38.30;101088.31;5078315;28;20039;-79
2022/04/25 00:06:49;;;;;;;7.35;3.80;;;;;;;21.36;38.41;101110.91;5064859;28;20040;-78
2022/04/25 00:09:14;;;;;;;6.38;3.60;;;;;;;21.36;38.46;101121.50;5096577;27;20044;-79
2022/04/25 00:11:40;;;;;;;7.40;3.85;;;;;;;21.34;38.50;101112.06;5098571;28;20058;-79
2022/04/25 00:14:07;;;;;;;5.63;3.60;;;;;;;21.34;38.57;101112.06;5094825;28;20040;-78
2022/04/25 00:16:33;;;;;;;6.43;3.50;;;;;;;21.30;38.60;101110.78;5093757;28;20040;-78
2022/04/25 00:19:00;;;;;;;5.97;3.65;;;;;;;21.33;38.56;101121.00;5097276;28;20039;-78
2022/04/25 00:21:26;;;;;;;9.38;4.13;;;;;;;21.29;38.55;101117.91;5080748;28;20039;-78
2022/04/25 00:23:52;;;;;;;8.13;3.63;;;;;;;21.15;38.73;101100.16;5094605;28;20499;-79
2022/04/25 00:26:17;;;;;;;4.85;3.80;;;;;;;21.28;38.59;101123.38;5098213;28;20052;-79
2022/04/25 00:28:43;;;;;;;6.10;3.85;;;;;;;21.30;38.56;101122.19;5095337;28;20048;-78
2022/04/25 00:31:09;;;;;;;7.25;3.80;;;;;;;21.25;38.64;101114.00;5084945;27;20039;-78
2022/04/25 00:33:35;;;;;;;7.45;4.47;;;;;;;21.28;38.57;101120.75;5100239;28;20039;-78
2022/04/25 00:36:00;;;;;;;6.43;4.07;;;;;;;21.27;38.63;101124.41;5098437;28;20039;-78
2022/04/25 00:38:26;;;;;;;7.03;3.92;;;;;;;21.19;38.73;101116.53;5099656;28;20066;-79
2022/04/25 00:40:51;;;;;;;7.28;3.67;;;;;;;21.26;38.70;101114.81;5090293;28;20412;-79
2022/04/25 00:43:17;;;;;;;6.20;3.75;;;;;;;21.23;38.73;101120.44;5096927;28;20449;-79
2022/04/25 00:45:43;;;;;;;6.28;3.35;;;;;;;21.13;38.74;101107.44;5090946;28;20044;-79
2022/04/25 00:48:08;;;;;;;5.85;3.50;;;;;;;21.20;38.85;101121.63;5094132;28;20362;-79
2022/04/25 00:50:34;;;;;;;5.93;3.60;;;;;;;21.01;38.74;101085.09;5081200;28;20473;-79
2022/04/25 00:52:59;;;;;;;8.18;3.88;;;;;;;21.15;38.63;101101.97;5097216;28;20386;-79
2022/04/25 00:55:25;;;;;;;6.53;3.53;;;;;;;21.12;38.69;101105.81;5102428;28;20032;-79
2022/04/25 00:57:52;;;;;;;5.13;3.58;;;;;;;21.06;38.74;101094.13;5103605;27;20435;-79
2022/04/25 01:00:18;;;;;;;5.72;3.58;;;;;;;21.17;38.79;101110.56;5081007;28;20032;-80
2022/04/25 01:02:44;;;;;;;6.75;4.22;;;;;;;21.17;38.77;101110.56;5095230;28;20081;-80
2022/04/25 01:05:09;;;;;;;7.20;3.85;;;;;;;21.08;38.70;101089.47;5097344;28;20043;-80
2022/04/25 01:07:37;;;;;;;6.80;3.78;;;;;;;21.12;38.86;101103.16;5081948;28;20078;-80
2022/04/25 01:10:07;;;;;;;9.57;3.97;;;;;;;21.00;38.86;101083.41;5101418;28;20039;-82
2022/04/25 01:12:33;;;;;;;4.72;3.25;;;;;;;21.13;38.89;101104.81;5090433;28;20078;-82
2022/04/25 01:15:08;;;;;;;5.75;4.00;;;;;;;21.13;38.50;101099.50;5082739;28;20178;-82
2022/04/25 01:17:33;;;;;;;5.32;3.60;;;;;;;20.96;38.77;101080.31;5097866;28;20059;-82
2022/04/25 01:19:59;;;;;;;8.13;4.07;;;;;;;21.09;38.83;101104.34;5084685;28;20118;-81
2022/04/25 01:22:31;;;;;;;5.78;3.38;;;;;;;21.08;38.91;101102.72;5095092;28;20035;-81
2022/04/25 01:27:42;;;;;;;6.75;3.42;;;;;;;21.08;38.95;101096.59;5097769;28;20040;-81
2022/04/25 01:30:09;;;;;;;6.78;4.28;;;;;;;21.06;38.92;101088.00;5081051;28;20761;-80
2022/04/25 01:32:37;;;;;;;7.65;4.07;;;;;;;21.03;38.98;101088.38;5097221;28;20027;-81
2022/04/25 01:35:03;;;;;;;5.00;3.70;;;;;;;20.94;39.02;101082.31;5097195;28;20075;-81
2022/04/25 01:37:28;;;;;;;4.93;3.50;;;;;;;21.01;39.03;101099.16;5100067;28;20077;-81
2022/04/25 01:39:55;;;;;;;6.80;3.25;;;;;;;21.02;38.92;101105.28;5100559;28;20031;-81
2022/04/25 01:42:21;;;;;;;6.60;3.70;;;;;;;21.01;38.97;101109.75;5080373;28;20048;-81
2022/04/25 01:44:47;;;;;;;9.45;4.05;;;;;;;20.98;38.87;101102.13;5097927;28;20084;-81
2022/04/25 01:47:13;;;;;;;6.07;3.40;;;;;;;21.01;39.01;101101.81;5098667;28;20577;-81
2022/04/25 01:49:39;;;;;;;4.80;3.55;;;;;;;20.89;38.92;101094.47;5096282;28;20499;-81
2022/04/25 01:52:29;;;;;;;6.45;3.83;;;;;;;20.98;38.88;101107.44;5078524;28;20747;-81
2022/04/25 01:54:56;;;;;;;7.10;3.65;;;;;;;20.96;39.02;101112.09;5099173;28;20036;-82
2022/04/25 01:57:21;;;;;;;8.43;3.80;;;;;;;20.98;38.87;101104.78;5083919;28;20054;-81
2022/04/25 01:59:47;;;;;;;6.75;3.80;;;;;;;20.92;39.01;101100.22;5100205;28;20067;-81
2022/04/25 02:02:14;;;;;;;6.75;3.45;;;;;;;20.94;38.95;101111.44;5079745;28;20120;-81
2022/04/25 02:04:40;;;;;;;7.63;4.15;;;;;;;20.95;38.94;101110.44;5096758;28;20039;-81
2022/04/25 02:07:07;;;;;;;6.97;4.00;;;;;;;20.93;38.93;101115.09;5094758;28;20800;-81
2022/04/25 02:09:34;;;;;;;5.30;3.80;;;;;;;20.95;38.91;101113.09;5082971;28;20044;-81
2022/04/25 02:11:59;;;;;;;8.48;4.03;;;;;;;20.93;38.85;101104.50;5095824;28;20039;-81
2022/04/25 02:14:29;;;;;;;5.35;3.90;;;;;;;20.93;39.02;101108.97;5099221;28;20500;-80
2022/04/25 02:16:58;;;;;;;7.57;3.95;;;;;;;20.80;38.96;101083.94;5099151;28;20093;-80
2022/04/25 02:19:28;;;;;;;6.68;4.03;;;;;;;20.91;38.78;101089.81;5099200;28;20031;-80
2022/04/25 02:21:56;;;;;;;5.38;3.65;;;;;;;20.89;38.98;101087.34;5071620;28;20048;-81
2022/04/25 02:24:22;;;;;;;5.20;3.67;;;;;;;20.79;38.90;101084.94;5085809;28;20028;-80
2022/04/25 02:26:48;;;;;;;5.95;3.83;;;;;;;20.86;38.87;101100.13;5091604;28;20051;-80
2022/04/25 02:29:14;;;;;;;5.20;3.75;;;;;;;20.81;38.94;101085.59;5092804;28;20043;-80
2022/04/25 02:31:40;;;;;;;6.68;3.90;;;;;;;20.87;39.01;101102.59;5095556;28;20127;-79
2022/04/25 02:34:05;;;;;;;6.47;3.55;;;;;;;20.71;38.92;101082.38;5072604;28;20501;-81
2022/04/25 02:36:31;;;;;;;5.82;3.22;;;;;;;20.83;38.99;101106.59;5082213;28;20110;-81
2022/04/25 02:38:56;;;;;;;8.93;4.10;;;;;;;20.83;39.00;101103.97;5081061;28;20044;-81
2022/04/25 02:41:22;;;;;;;6.03;3.63;;;;;;;20.87;38.83;101110.53;5098852;28;20035;-81
2022/04/25 02:43:47;;;;;;;6.47;3.50;;;;;;;20.86;38.62;101108.06;5098293;28;20036;-81
2022/04/25 02:46:16;;;;;;;7.28;3.72;;;;;;;20.63;39.04;101085.09;5098567;28;20708;-80
2022/04/25 02:48:44;;;;;;;6.00;3.50;;;;;;;20.75;39.29;101101.38;5092385;28;20041;-80
2022/04/25 02:51:10;;;;;;;5.28;3.50;;;;;;;20.79;38.89;101116.72;5074011;28;20143;-80
2022/04/25 02:53:36;;;;;;;6.18;3.78;;;;;;;20.76;39.04;101109.13;5101584;28;20047;-81
2022/04/25 02:56:02;;;;;;;8.65;3.60;;;;;;;20.75;39.00;101102.19;5096617;28;20035;-81
2022/04/25 02:58:29;;;;;;;5.88;3.58;;;;;;;20.75;38.97;101107.50;5104267;28;20397;-81
2022/04/25 03:00:55;;;;;;;5.93;3.53;;;;;;;20.73;39.00;101103.38;5097805;28;20116;-81
2022/04/25 03:03:22;;;;;;;5.90;3.15;;;;;;;20.58;38.85;101076.03;5083226;28;20043;-81
2022/04/25 03:05:51;;;;;;;7.43;3.50;;;;;;;20.67;38.92;101088.22;5103748;27;20059;-81
2022/04/25 03:08:19;;;;;;;6.80;3.78;;;;;;;20.75;39.02;101115.44;5084419;28;20036;-81
2022/04/25 03:10:45;;;;;;;7.35;3.80;;;;;;;20.51;38.95;101081.25;5072710;28;20040;-81
2022/04/25 03:13:12;;;;;;;4.30;3.50;;;;;;;20.72;38.89;101110.50;5094894;27;20028;-81
2022/04/25 03:15:38;;;;;;;7.00;3.90;;;;;;;20.64;39.05;101101.78;5103376;28;20032;-81
2022/04/25 03:18:10;;;;;;;5.93;3.70;;;;;;;20.62;38.98;101109.09;5092362;28;20128;-81
2022/04/25 03:20:37;;;;;;;7.60;4.13;;;;;;;20.57;39.03;101099.03;5098500;28;20026;-81
2022/04/25 03:23:05;;;;;;;5.80;3.70;;;;;;;20.69;38.95;101124.09;5082975;28;20608;-81
2022/04/25 03:25:31;;;;;;;5.85;3.55;;;;;;;20.68;39.07;101119.78;5083604;28;20052;-81
2022/04/25 03:27:58;;;;;;;5.93;3.67;;;;;;;20.65;39.31;101114.03;5080362;28;20182;-80
2022/04/25 03:30:24;;;;;;;7.75;4.18;;;;;;;20.58;39.06;101107.81;5102986;28;20036;-80
2022/04/25 03:32:50;;;;;;;7.38;3.63;;;;;;;20.44;39.06;101080.28;5100327;28;20037;-80
2022/04/25 03:35:17;;;;;;;5.40;3.53;;;;;;;20.65;39.05;101119.34;5099681;27;20042;-80
2022/04/25 03:37:46;;;;;;;7.40;4.22;;;;;;;20.59;39.08;101122.66;5102771;28;20039;-80
2022/04/25 03:40:12;;;;;;;5.90;3.75;;;;;;;20.55;39.08;101121.38;5093661;28;20049;-80
2022/04/25 03:42:40;;;;;;;7.88;3.90;;;;;;;20.54;39.19;101125.84;5099728;28;20051;-80
2022/04/25 03:45:11;;;;;;;5.40;3.63;;;;;;;20.57;39.15;101127.31;5100809;27;20470;-80
2022/04/25 03:47:40;;;;;;;5.75;3.33;;;;;;;20.57;39.06;101135.25;5095254;28;20142;-80
2022/04/25 03:50:08;;;;;;;6.80;3.35;;;;;;;20.52;39.16;101123.38;5101516;28;20050;-80
2022/04/25 03:52:42;;;;;;;7.35;3.53;;;;;;;20.48;39.15;101113.34;5101268;28;20047;-80
2022/04/25 03:57:55;;;;;;;5.78;3.35;;;;;;;20.57;39.13;101137.91;5086280;28;20088;-80
2022/04/25 04:00:21;;;;;;;7.50;3.85;;;;;;;20.54;39.09;101139.09;5100140;28;20687;-80
2022/04/25 04:02:47;;;;;;;8.00;3.58;;;;;;;20.51;39.09;101128.88;5090697;28;20043;-79
2022/04/25 04:05:13;;;;;;;7.20;3.85;;;;;;;20.51;39.16;101132.31;5097846;27;20043;-80
2022/04/25 04:07:39;;;;;;;5.97;3.30;;;;;;;20.44;39.15;101126.06;5090357;28;20103;-80
2022/04/25 04:10:05;;;;;;;4.85;3.10;;;;;;;20.31;38.99;101104.66;5096641;28;20134;-80
2022/04/25 04:12:32;;;;;;;5.03;3.22;;;;;;;20.45;39.01;101125.06;5063170;28;20482;-81
2022/04/25 04:15:05;;;;;;;7.10;3.30;;;;;;;20.54;39.00;101135.63;5082967;28;20032;-80
2022/04/25 04:17:34;;;;;;;4.18;2.90;;;;;;;20.43;38.94;101115.69;5095309;28;20035;-81
2022/04/25 04:20:03;;;;;;;7.75;3.80;;;;;;;20.51;39.04;101139.44;5096338;28;20507;-80
2022/04/25 04:22:32;;;;;;;5.93;3.53;;;;;;;20.50;38.98;101140.44;5096090;28;21832;-81
2022/04/25 04:25:03;;;;;;;7.85;4.07;;;;;;;20.42;39.09;101133.38;5097496;28;20055;-81
2022/04/25 04:27:31;;;;;;;7.43;3.20;;;;;;;20.28;39.11;101114.75;5070672;28;20076;-80
2022/04/25 04:30:01;;;;;;;5.82;3.22;;;;;;;20.47;39.07;101140.81;5085421;28;20187;-80
2022/04/25 04:32:30;;;;;;;4.90;3.17;;;;;;;20.49;39.08;101152.03;5082875;28;20047;-80
2022/04/25 04:35:00;;;;;;;5.47;3.70;;;;;;;20.45;39.08;101151.53;5100148;27;20110;-80
2022/04/25 04:37:26;;;;;;;5.20;3.40;;;;;;;20.46;39.13;101152.34;5099325;28;20051;-81
2022/04/25 04:42:37;;;;;;;9.20;3.70;;;;;;;20.28;39.12;101128.81;5086299;28;20104;-80
2022/04/25 04:45:03;;;;;;;6.32;3.47;;;;;;;20.45;39.08;101156.81;5079170;28;20087;-81
2022/04/25 04:47:33;;;;;;;5.15;3.45;;;;;;;20.44;39.07;101157.00;5066074;28;20040;-80
2022/04/25 04:49:58;;;;;;;6.53;3.72;;;;;;;20.33;39.13;101145.00;5081412;28;20043;-81
2022/04/25 04:52:24;;;;;;;7.68;3.78;;;;;;;20.35;38.93;101147.44;5098281;28;20682;-81
2022/04/25 04:54:49;;;;;;;5.35;3.10;;;;;;;20.42;39.13;101162.47;5085517;28;21324;-81
2022/04/25 04:57:15;;;;;;;5.95;3.30;;;;;;;20.44;39.00;101164.94;5099145;28;20043;-80
2022/04/25 04:59:40;;;;;;;8.02;3.42;;;;;;;20.14;39.11;101125.09;5057413;28;20036;-80
2022/04/25 05:02:06;;;;;;;6.25;3.33;;;;;;;20.40;39.03;101168.91;5098464;28;20785;-80
2022/04/25 05:04:31;;;;;;;5.45;3.30;;;;;;;20.38;39.28;101174.38;5080530;28;20081;-81
2022/04/25 05:06:57;;;;;;;5.40;3.83;;;;;;;20.15;39.08;101144.44;5067821;28;20031;-81
2022/04/25 05:09:22;;;;;;;4.50;3.00;;;;;;;20.36;39.15;101181.66;5079942;28;20501;-81
2022/04/25 05:11:48;;;;;;;5.28;3.50;;;;;;;20.25;39.13;101160.06;5096379;28;20039;-80
2022/04/25 05:14:14;;;;;;;4.25;3.35;;;;;;;20.36;39.14;101184.31;5084217;28;20070;-80
2022/04/25 05:16:40;;;;;;;6.50;3.20;;;;;;;20.16;39.23;101149.56;5096964;28;20276;-80
2022/04/25 05:19:05;;;;;;;6.22;3.53;;;;;;;20.37;39.10;101183.31;5096457;28;20047;-80
2022/04/25 05:21:31;;;;;;;5.25;3.38;;;;;;;20.22;39.13;101174.47;5099334;28;20042;-81
2022/04/25 05:23:57;;;;;;;4.63;3.33;;;;;;;20.34;39.15;101191.59;5046249;28;20082;-80
2022/04/25 05:26:23;;;;;;;4.50;3.13;;;;;;;20.26;39.10;101182.88;5080507;28;20044;-80
2022/04/25 05:28:49;;;;;;;5.65;3.45;;;;;;;20.33;39.20;101189.94;5096736;28;21002;-80
2022/04/25 05:31:14;;;;;;;3.92;2.70;;;;;;;20.45;38.79;101177.97;5098549;27;20068;-80
2022/04/25 05:33:40;;;;;;;5.10;3.30;;;;;;;20.93;38.26;101201.63;5072926;28;20079;-80
2022/04/25 05:36:05;;;;;;;5.05;3.30;;;;;;;21.24;37.66;101193.59;5097961;28;20671;-80
2022/04/25 05:38:31;;;;;;;5.20;3.20;;;;;;;21.46;37.53;101186.63;5076512;28;20055;-80
2022/04/25 05:40:57;;;;;;;5.78;2.92;;;;;;;22.16;36.62;101208.19;5098972;28;20058;-80
2022/04/25 05:43:23;;;;;;;6.55;3.38;;;;;;;22.27;36.35;101205.06;5094804;28;20034;-80
2022/04/25 05:45:49;;;;;;;7.43;3.30;;;;;;;22.10;36.42;101182.41;5079373;28;20043;-80
2022/04/25 05:53:43;;;;;;;5.35;3.00;;;;;;;21.90;36.70;101213.09;5083253;28;20138;-81
2022/04/25 05:56:08;;;;;;;4.22;2.85;;;;;;;21.87;36.77;101216.94;5099313;28;20048;-81
2022/04/25 05:58:34;;;;;;;4.93;3.17;;;;;;;21.72;36.59;101197.56;5081840;28;20085;-81
2022/04/25 06:00:59;;;;;;;4.00;3.00;;;;;;;21.85;36.56;101211.00;5061810;28;20047;-80
2022/04/25 06:03:25;;;;;;;4.93;2.88;;;;;;;21.91;36.57;101225.38;5078993;28;20601;-81
2022/04/25 06:05:54;;;;;;;4.60;2.75;;;;;;;21.77;36.75;101205.81;5057534;28;20642;-81
2022/04/25 06:08:19;;;;;;;4.93;3.08;;;;;;;21.85;36.86;101229.56;5099494;28;20039;-81
2022/04/25 06:10:45;;;;;;;3.78;2.67;;;;;;;21.86;36.59;101225.91;5077070;28;20028;-81
2022/04/25 06:13:10;;;;;;;4.72;3.30;;;;;;;21.92;36.29;101232.34;5062922;28;20096;-80
2022/04/25 06:15:35;;;;;;;4.78;2.90;;;;;;;21.78;36.53;101222.56;5082365;28;20060;-81
2022/04/25 06:18:01;;;;;;;4.50;2.90;;;;;;;21.92;36.40;101242.94;5097514;28;20670;-80
2022/04/25 06:20:30;;;;;;;5.43;2.88;;;;;;;21.87;36.44;101232.88;5098482;28;20044;-79
2022/04/25 06:22:58;;;;;;;3.80;2.72;;;;;;;22.13;36.28;101242.22;5086191;28;20101;-80
2022/04/25 06:25:26;;;;;;;6.70;3.20;;;;;;;22.24;35.73;101239.91;5076305;28;20146;-79
2022/04/25 06:27:52;;;;;;;4.65;2.90;;;;;;;22.28;35.90;101254.47;5080777;28;20127;-79
2022/04/25 06:30:18;;;;;;;5.53;2.90;;;;;;;22.26;35.87;101256.47;5096971;28;20023;-80
2022/04/25 06:32:44;;;;;;;6.53;2.88;;;;;;;22.13;36.14;101256.31;5099291;28;20043;-81
2022/04/25 06:35:11;;;;;;;4.72;2.60;;;;;;;22.03;36.57;101243.28;5099899;27;20561;-79
2022/04/25 06:37:37;;;;;;;6.28;2.95;;;;;;;22.18;36.54;101261.88;5097361;27;20042;-80
2022/04/25 06:40:03;;;;;;;4.47;2.60;;;;;;;22.14;36.45;101257.13;5099197;28;20044;-80
2022/04/25 06:42:28;;;;;;;5.28;3.03;;;;;;;22.13;36.61;101266.91;5080412;28;20701;-81
2022/04/25 06:44:54;;;;;;;3.88;2.60;;;;;;;22.10;36.83;101259.34;5099879;28;20036;-80
2022/04/25 06:47:20;;;;;;;6.20;3.08;;;;;;;21.96;36.75;101245.03;5102743;28;20047;-80
2022/04/25 06:49:46;;;;;;;4.43;2.95;;;;;;;22.02;37.13;101262.84;5100542;28;20042;-80
2022/04/25 06:52:11;;;;;;;4.93;2.95;;;;;;;21.98;37.09;101268.72;5102325;27;20054;-80
2022/04/25 06:54:37;;;;;;;5.53;3.20;;;;;;;21.98;36.94;101269.53;5086444;28;20053;-80
2022/04/25 06:57:03;;;;;;;3.80;2.78;;;;;;;21.92;37.29;101272.94;5104087;28;20027;-80
2022/04/25 06:59:29;;;;;;;4.65;2.60;;;;;;;21.70;37.32;101247.31;5101170;28;20046;-81
2022/04/25 07:01:54;;;;;;;5.78;3.33;;;;;;;21.84;37.21;101282.78;5100487;28;20077;-80
2022/04/25 07:04:20;;;;;;;6.35;3.60;;;;;;;21.81;37.39;101281.31;5102029;28;20066;-80
2022/04/25 07:06:47;;;;;;;5.90;2.75;;;;;;;21.80;37.58;101278.84;5082740;28;20176;-78
2022/04/25 07:09:13;;;;;;;3.72;2.80;;;;;;;21.87;37.16;101283.25;5104652;28;20123;-80
2022/04/25 07:11:46;;;;;;;6.50;3.05;;;;;;;21.94;36.98;101278.03;5089453;28;20035;-79
2022/04/25 07:14:14;;;;;;;6.60;3.63;;;;;;;21.99;37.04;101280.97;5097684;28;20522;-79
2022/04/25 07:16:41;;;;;;;4.38;3.13;;;;;;;21.92;36.81;101270.28;5070480;28;20043;-79
2022/04/25 07:19:06;;;;;;;4.38;2.80;;;;;;;21.89;36.87;101270.63;5085192;28;20381;-79
2022/04/25 07:29:48;;;;;;;6.85;3.10;;;;;;;21.71;37.42;101268.31;5103676;28;20051;-78
2022/04/25 07:32:17;;;;;;;5.05;3.10;;;;;;;21.76;37.54;101288.19;5100468;28;20308;-78
2022/04/25 07:34:43;;;;;;;4.70;3.10;;;;;;;21.75;37.45;101281.25;5103543;27;20043;-78
2022/04/25 07:37:10;;;;;;;3.47;2.70;;;;;;;21.56;37.48;101261.38;5101148;28;20457;-79
2022/04/25 07:39:35;;;;;;;5.38;3.03;;;;;;;21.69;37.73;101298.66;5083273;28;20050;-80
2022/04/25 07:42:01;;;;;;;7.55;3.60;;;;;;;21.74;37.84;101292.84;5098426;28;20040;-78
2022/04/25 07:44:27;;;;;;;5.75;3.05;;;;;;;21.71;37.67;101300.13;5081639;28;20130;-79
2022/04/25 07:46:53;;;;;;;7.68;3.35;;;;;;;21.64;37.78;101299.22;5104333;28;20520;-78
2022/04/25 07:49:19;;;;;;;4.80;2.97;;;;;;;21.55;37.68;101296.84;5102233;28;20110;-79
2022/04/25 07:51:45;;;;;;;5.45;3.42;;;;;;;21.57;37.61;101308.06;5083567;28;20031;-78
2022/04/25 07:54:11;;;;;;;6.93;3.55;;;;;;;21.54;37.41;101290.69;5086409;28;20035;-79
2022/04/25 07:56:38;;;;;;;6.15;3.20;;;;;;;21.76;37.21;101302.25;5085090;28;20039;-79
2022/04/25 07:59:05;;;;;;;6.00;3.35;;;;;;;21.89;36.98;101298.97;5077906;28;20114;-79
2022/04/25 08:01:33;;;;;;;5.20;3.38;;;;;;;21.98;36.61;101293.41;5102948;28;20044;-78
2022/04/25 08:03:59;;;;;;;6.88;3.20;;;;;;;22.11;36.59;101298.09;5100626;28;20046;-79
2022/04/25 08:06:25;;;;;;;6.00;3.17;;;;;;;22.02;36.35;101296.50;5101635;28;20114;-78
2022/04/25 08:08:52;;;;;;;6.28;3.75;;;;;;;22.06;36.55;101307.59;5085443;28;20032;-78
2022/04/25 08:11:19;;;;;;;5.40;3.30;;;;;;;21.99;36.21;101313.59;5102519;28;20396;-78
2022/04/25 08:19:16;;;;;;;7.88;3.28;;;;;;;21.78;36.42;101297.59;5101662;27;20036;-78
2022/04/25 08:21:43;;;;;;;5.93;3.50;;;;;;;21.83;36.23;101305.00;5084349;28;20077;-78
2022/04/25 08:24:11;;;;;;;6.28;3.40;;;;;;;21.84;36.34;101317.25;5098945;28;20088;-78
2022/04/25 08:26:37;;;;;;;4.55;3.25;;;;;;;21.67;36.55;101300.69;5099667;27;20501;-78
2022/04/25 08:29:03;;;;;;;8.93;4.15;;;;;;;21.68;36.38;101308.44;5101809;28;20073;-79
2022/04/25 08:31:29;;;;;;;8.13;3.50;;;;;;;21.70;36.68;101325.00;5098535;28;20032;-78
2022/04/25 08:33:56;;;;;;;6.18;3.63;;;;;;;21.69;36.89;101325.16;5101418;27;20147;-79
2022/04/25 08:36:22;;;;;;;7.28;3.63;;;;;;;21.59;36.87;101329.91;5101982;28;20036;-79
2022/04/25 08:38:49;;;;;;;5.20;3.20;;;;;;;21.56;37.03;101324.97;5105029;28;20076;-78
2022/04/25 08:41:17;;;;;;;7.60;3.58;;;;;;;21.48;36.65;101317.09;5104759;28;20062;-79
2022/04/25 08:43:51;;;;;;;5.45;2.97;;;;;;;21.48;36.64;101319.72;5104675;28;20047;-78
2022/04/25 08:46:17;;;;;;;6.20;3.45;;;;;;;21.65;36.29;101321.25;5086995;28;20043;-78
2022/04/25 08:48:44;;;;;;;5.22;3.05;;;;;;;21.93;36.08;101342.69;5083608;28;20081;-79
2022/04/25 08:51:10;;;;;;;4.82;3.38;;;;;;;22.05;35.81;101343.09;5099992;28;20560;-79
2022/04/25 08:53:39;;;;;;;5.70;3.05;;;;;;;22.14;35.84;101337.53;5104304;27;20036;-79
2022/04/25 08:56:09;;;;;;;5.60;3.17;;;;;;;22.16;35.44;101337.34;5104203;28;20050;-78
2022/04/25 08:58:39;;;;;;;5.25;3.65;;;;;;;22.11;35.76;101334.41;5104152;28;20778;-78
2022/04/25 09:01:05;;;;;;;3.55;2.75;;;;;;;22.06;35.67;101358.00;5080446;28;20031;-78
2022/04/25 09:03:30;;;;;;;4.60;3.25;;;;;;;21.94;35.73;101331.91;5098706;28;20036;-78
2022/04/25 09:05:58;;;;;;;5.43;3.08;;;;;;;22.08;35.66;101361.28;5103621;28;20047;-79
2022/04/25 09:08:23;;;;;;;5.22;3.25;;;;;;;21.95;35.28;101345.97;5082651;28;20036;-78
2022/04/25 09:10:49;;;;;;;4.65;2.78;;;;;;;21.96;35.66;101344.97;5105530;28;20042;-78
2022/04/25 09:13:15;;;;;;;4.45;2.97;;;;;;;21.92;35.80;101349.00;5101196;28;20058;-78
2022/04/25 09:15:41;;;;;;;5.32;2.70;;;;;;;21.93;35.50;101361.25;5097452;27;20054;-79
2022/04/25 09:18:07;;;;;;;6.30;3.50;;;;;;;21.73;35.67;101336.25;5042747;28;20235;-78
2022/04/25 09:20:33;;;;;;;4.35;2.70;;;;;;;21.70;35.67;101342.72;5101868;28;20040;-78
2022/04/25 09:22:59;;;;;;;4.53;2.65;;;;;;;21.67;36.07;101351.03;5103203;28;20036;-78
2022/04/25 09:25:26;;;;;;;5.50;3.00;;;;;;;21.68;35.98;101371.22;5062463;28;20494;-78
2022/04/25 09:28:27;;;;;;;6.38;3.00;;;;;;;21.62;36.10;101367.47;5080124;28;20036;-78
2022/04/25 09:30:57;;;;;;;4.22;2.60;;;;;;;21.54;36.30;101361.41;5016104;28;20051;-79
2022/04/25 09:33:23;;;;;;;;;;;;;;;21.77;35.89;101378.13;5071893;28;20071;-78
2022/04/25 09:35:53;;;;;;;4.90;2.97;;;;;;;21.81;35.94;101387.38;5097362;28;19920;-79
2022/04/25 09:38:28;;;;;;;;;;;;;;;21.83;35.84;101381.88;5081281;28;20074;-78
2022/04/25 09:40:55;;;;;;;5.35;2.65;;;;;;;21.76;35.91;101383.63;5079653;28;20507;-79
2022/04/25 09:43:29;;;;;;;5.65;2.78;;;;;;;21.83;35.60;101382.72;5080742;28;20040;-79
2022/04/25 09:46:12;;;;;;;4.07;2.67;;;;;;;21.76;35.90;101384.44;5081528;28;20442;-79
2022/04/25 09:48:41;;;;;;;3.20;2.67;;;;;;;21.68;35.67;101369.41;5082289;28;20493;-79
2022/04/25 09:51:12;;;;;;;5.40;2.88;;;;;;;21.79;35.58;101383.25;5081044;28;20092;-79
2022/04/25 09:53:47;;;;;;;4.85;2.90;;;;;;;21.80;35.85;101391.03;5077779;28;20572;-78
2022/04/25 09:56:22;;;;;;;3.50;2.53;;;;;;;21.81;35.57;101381.25;5081757;28;20156;-78
2022/04/25 09:59:05;;;;;;;3.78;2.55;;;;;;;21.82;35.66;101382.88;5081630;28;20049;-79
2022/04/25 10:01:35;;;;;;;4.88;2.95;;;;;;;21.78;35.86;101390.38;5081575;28;20056;-79
2022/04/25 10:04:06;;;;;;;4.53;2.78;;;;;;;21.62;35.90;101371.97;5076772;28;20110;-79
2022/04/25 10:06:33;;;;;;;4.15;2.47;;;;;;;21.70;35.82;101391.25;5074036;28;20044;-79
2022/04/25 10:09:06;;;;;;;4.45;2.83;;;;;;;21.61;35.92;101388.88;5080385;28;20394;-79
2022/04/25 10:11:39;;;;;;;5.32;2.92;;;;;;;21.63;35.95;101390.34;5083892;28;20229;-79
2022/04/25 10:14:05;;;;;;;6.68;2.95;;;;;;;21.71;35.89;101394.72;5086748;28;20166;-78
2022/04/25 10:16:33;;;;;;;3.42;2.70;;;;;;;21.89;35.52;101403.19;5086247;28;20036;-79
2022/04/25 10:18:59;;;;;;;3.78;2.40;;;;;;;21.94;35.25;101405.31;5088117;28;20036;-79
2022/04/25 10:21:29;;;;;;;5.72;2.92;;;;;;;21.91;35.87;101395.91;5084582;28;20081;-79
2022/04/25 10:23:56;;;;;;;6.57;3.17;;;;;;;21.78;35.70;101385.09;5083887;28;20039;-78
2022/04/25 10:26:27;;;;;;;5.95;3.15;;;;;;;21.86;35.76;101394.78;5084032;28;20052;-79
2022/04/25 10:28:59;;;;;;;5.60;3.13;;;;;;;21.80;35.61;101401.63;5082104;28;20593;-79
2022/04/25 10:31:30;;;;;;;4.50;2.65;;;;;;;21.81;35.55;101394.50;5086109;28;20394;-79
2022/04/25 10:33:58;;;;;;;3.25;2.67;;;;;;;21.79;35.78;101393.84;5097226;28;20032;-79
2022/04/25 10:36:39;;;;;;;11.38;2.95;;;;;;;21.86;35.59;101395.59;5076769;28;20731;-79
2022/04/25 10:39:18;;;;;;;5.60;2.70;;;;;;;21.78;35.82;101390.38;5084502;28;20117;-79
2022/04/25 10:44:42;;;;;;;5.07;2.97;;;;;;;21.75;35.86;101404.00;5085042;28;20034;-78
2022/04/25 10:47:13;;;;;;;6.13;3.20;;;;;;;21.70;36.04;101401.84;5081619;28;20035;-78
2022/04/25 10:50:03;;;;;;;4.07;2.53;;;;;;;21.67;35.94;101402.22;5082902;28;20465;-78
2022/04/25 10:52:42;;;;;;;3.42;2.55;;;;;;;21.67;35.81;101404.88;5070728;28;20040;-78
2022/04/25 10:55:35;;;;;;;4.35;2.58;;;;;;;21.64;35.86;101407.06;5082592;28;20123;-78
2022/04/25 10:58:03;;;;;;;3.78;2.40;;;;;;;21.68;35.79;101411.81;5083209;28;20031;-78
2022/04/25 11:03:08;;;;;;;4.38;2.72;;;;;;;21.64;35.93;101405.22;5080631;28;20066;-80
2022/04/25 11:05:45;;;;;;;5.68;2.47;;;;;;;21.59;35.98;101396.19;5083056;28;20032;-80
2022/04/25 11:08:17;;;;;;;4.65;2.53;;;;;;;21.68;35.72;101411.81;5081408;28;20085;-79
2022/04/25 11:10:56;;;;;;;5.00;2.42;;;;;;;21.76;35.73;101405.66;5077900;28;20028;-79
2022/04/25 11:13:23;;;;;;;4.90;2.60;;;;;;;22.02;35.59;101408.72;5079507;28;20036;-79
2022/04/25 11:15:56;;;;;;;4.65;2.70;;;;;;;21.93;35.29;101380.63;5084516;28;20028;-79
2022/04/25 11:18:33;;;;;;;3.65;2.92;;;;;;;22.16;34.96;101414.25;5083677;28;20040;-79
2022/04/25 11:21:07;;;;;;;4.13;2.53;;;;;;;22.14;35.00;101414.44;5078543;28;20028;-79
2022/04/25 11:23:47;;;;;;;3.03;2.15;;;;;;;22.15;35.38;101416.09;5081357;28;20170;-79
2022/04/25 11:26:22;;;;;;;4.03;2.85;;;;;;;22.17;34.91;101419.38;5085418;28;20785;-80
2022/04/25 11:29:03;;;;;;;4.70;2.97;;;;;;;22.18;35.31;101420.22;5101580;28;20048;-79
2022/04/25 11:31:31;;;;;;;4.90;2.63;;;;;;;22.01;35.45;101403.59;5101145;28;20513;-79
2022/04/25 11:34:03;;;;;;;4.97;2.70;;;;;;;22.08;35.58;101420.44;5081082;28;20138;-80
2022/04/25 11:36:37;;;;;;;3.95;2.60;;;;;;;22.03;35.97;101423.63;5100243;28;20416;-79
2022/04/25 11:41:47;;;;;;;4.40;2.63;;;;;;;21.79;36.49;101409.75;5101939;27;20621;-80
2022/04/25 11:44:13;;;;;;;4.07;2.78;;;;;;;21.82;36.65;101423.47;5087337;28;20031;-79
2022/04/25 11:46:38;;;;;;;6.90;3.30;;;;;;;21.82;36.36;101428.78;5100914;28;20504;-79
2022/04/25 11:49:06;;;;;;;3.97;2.83;;;;;;;21.72;36.41;101409.63;5102186;28;20037;-79
2022/04/25 11:51:39;;;;;;;3.30;2.50;;;;;;;21.74;36.91;101426.22;5089310;28;20039;-78
2022/04/25 11:54:10;;;;;;;8.93;4.00;;;;;;;21.73;36.58;101424.56;5099678;28;20036;-79
2022/04/25 11:56:41;;;;;;;2.80;2.47;;;;;;;21.76;36.77;101424.19;5099087;28;20039;-79
2022/04/25 11:59:12;;;;;;;4.30;3.03;;;;;;;21.71;36.38;101427.38;5101935;28;20040;-80
2022/04/25 12:01:40;;;;;;;5.63;2.50;;;;;;;21.72;36.75;101430.84;5081962;28;20036;-79
2022/04/25 12:04:28;;;;;;;3.88;2.75;;;;;;;21.69;36.64;101429.38;5102175;28;20214;-79
2022/04/25 12:07:01;;;;;;;3.72;2.47;;;;;;;21.71;36.90;101437.13;5100002;28;20090;-79